sensor_id;sensor_type;location;lat;lon;timestamp;P1;durP1;ratioP1;P2;durP2;ratioP2
61435;SDS011;47304;47.456;19.160;2023-02-15T00:01:33;30.60;;;16.40;;
61435;SDS011;47304;47.456;19.160;2023-02-15T00:04:01;28.90;;;13.40;;
61435;SDS011;47304;47.456;19.160;2023-02-15T00:06:28;33.10;;;16.50;;
61435;SDS011;47304;47.456;19.160;2023-02-15T00:08:56;30.20;;;14.00;;
61435;SDS011;47304;47.456;19.160;2023-02-15T00:11:23;26.20;;;13.30;;
61435;SDS011;47304;47.456;19.160;2023-02-15T00:13:49;27.90;;;15.00;;
61435;SDS011;47304;47.456;19.160;2023-02-15T00:16:16;29.40;;;14.00;;
61435;SDS011;47304;47.456;19.160;2023-02-15T00:18:42;29.70;;;14.50;;
61435;SDS011;47304;47.456;19.160;2023-02-15T00:21:09;31.50;;;16.20;;
61435;SDS011;47304;47.456;19.160;2023-02-15T00:23:36;34.10;;;17.30;;
61435;SDS011;47304;47.456;19.160;2023-02-15T00:26:06;35.10;;;16.60;;
61435;SDS011;47304;47.456;19.160;2023-02-15T00:28:37;31.40;;;15.20;;
61435;SDS011;47304;47.456;19.160;2023-02-15T00:31:05;34.60;;;16.60;;
61435;SDS011;47304;47.456;19.160;2023-02-15T00:33:32;28.70;;;14.10;;
61435;SDS011;47304;47.456;19.160;2023-02-15T00:36:00;27.70;;;14.70;;
61435;SDS011;47304;47.456;19.160;2023-02-15T00:38:28;35.50;;;16.70;;
61435;SDS011;47304;47.456;19.160;2023-02-15T00:40:56;28.30;;;15.90;;
61435;SDS011;47304;47.456;19.160;2023-02-15T00:43:24;32.80;;;16.60;;
61435;SDS011;47304;47.456;19.160;2023-02-15T00:45:51;31.40;;;15.70;;
61435;SDS011;47304;47.456;19.160;2023-02-15T00:48:18;34.40;;;16.60;;
61435;SDS011;47304;47.456;19.160;2023-02-15T00:50:46;30.60;;;17.10;;
61435;SDS011;47304;47.456;19.160;2023-02-15T00:53:13;31.90;;;15.90;;
61435;SDS011;47304;47.456;19.160;2023-02-15T00:55:39;35.30;;;16.80;;
61435;SDS011;47304;47.456;19.160;2023-02-15T00:58:06;37.10;;;17.00;;
61435;SDS011;47304;47.456;19.160;2023-02-15T01:00:33;34.40;;;18.40;;
61435;SDS011;47304;47.456;19.160;2023-02-15T01:03:00;36.20;;;18.30;;
61435;SDS011;47304;47.456;19.160;2023-02-15T01:05:27;32.50;;;17.30;;
61435;SDS011;47304;47.456;19.160;2023-02-15T01:07:54;37.30;;;18.00;;
61435;SDS011;47304;47.456;19.160;2023-02-15T01:10:21;34.30;;;17.60;;
61435;SDS011;47304;47.456;19.160;2023-02-15T01:12:49;33.80;;;17.60;;
61435;SDS011;47304;47.456;19.160;2023-02-15T01:15:17;39.10;;;19.20;;
61435;SDS011;47304;47.456;19.160;2023-02-15T01:17:44;33.00;;;17.10;;
61435;SDS011;47304;47.456;19.160;2023-02-15T01:20:11;33.20;;;17.50;;
61435;SDS011;47304;47.456;19.160;2023-02-15T01:22:38;30.70;;;16.60;;
61435;SDS011;47304;47.456;19.160;2023-02-15T01:25:04;33.00;;;16.80;;
61435;SDS011;47304;47.456;19.160;2023-02-15T01:27:31;35.90;;;16.50;;
61435;SDS011;47304;47.456;19.160;2023-02-15T01:29:58;30.70;;;17.40;;
61435;SDS011;47304;47.456;19.160;2023-02-15T01:32:24;35.50;;;17.20;;
61435;SDS011;47304;47.456;19.160;2023-02-15T01:34:51;30.00;;;16.30;;
61435;SDS011;47304;47.456;19.160;2023-02-15T01:37:17;33.10;;;17.20;;
61435;SDS011;47304;47.456;19.160;2023-02-15T01:39:44;33.60;;;16.00;;
61435;SDS011;47304;47.456;19.160;2023-02-15T01:42:11;36.70;;;17.90;;
61435;SDS011;47304;47.456;19.160;2023-02-15T01:50:03;31.10;;;15.30;;
61435;SDS011;47304;47.456;19.160;2023-02-15T01:52:40;35.80;;;16.40;;
61435;SDS011;47304;47.456;19.160;2023-02-15T01:55:14;34.20;;;17.30;;
61435;SDS011;47304;47.456;19.160;2023-02-15T01:57:41;35.80;;;18.00;;
61435;SDS011;47304;47.456;19.160;2023-02-15T02:00:09;38.70;;;17.80;;
61435;SDS011;47304;47.456;19.160;2023-02-15T02:02:36;33.70;;;15.90;;
61435;SDS011;47304;47.456;19.160;2023-02-15T02:05:03;38.30;;;18.70;;
61435;SDS011;47304;47.456;19.160;2023-02-15T02:07:33;33.60;;;16.90;;
61435;SDS011;47304;47.456;19.160;2023-02-15T02:10:03;38.40;;;18.90;;
61435;SDS011;47304;47.456;19.160;2023-02-15T02:12:31;38.60;;;19.80;;
61435;SDS011;47304;47.456;19.160;2023-02-15T02:14:58;36.60;;;17.40;;
61435;SDS011;47304;47.456;19.160;2023-02-15T02:49:42;41.50;;;18.60;;
61435;SDS011;47304;47.456;19.160;2023-02-15T02:55:03;38.10;;;18.30;;
61435;SDS011;47304;47.456;19.160;2023-02-15T02:57:35;37.80;;;18.60;;
61435;SDS011;47304;47.456;19.160;2023-02-15T03:00:05;38.30;;;18.50;;
61435;SDS011;47304;47.456;19.160;2023-02-15T03:02:36;40.60;;;17.40;;
61435;SDS011;47304;47.456;19.160;2023-02-15T03:05:08;36.50;;;18.20;;
61435;SDS011;47304;47.456;19.160;2023-02-15T03:07:40;36.10;;;18.30;;
61435;SDS011;47304;47.456;19.160;2023-02-15T03:10:09;40.70;;;20.00;;
61435;SDS011;47304;47.456;19.160;2023-02-15T03:12:36;38.50;;;19.80;;
61435;SDS011;47304;47.456;19.160;2023-02-15T03:15:13;40.40;;;19.30;;
61435;SDS011;47304;47.456;19.160;2023-02-15T03:17:46;44.50;;;20.50;;
61435;SDS011;47304;47.456;19.160;2023-02-15T03:20:18;38.40;;;19.90;;
61435;SDS011;47304;47.456;19.160;2023-02-15T03:22:49;43.90;;;20.30;;
61435;SDS011;47304;47.456;19.160;2023-02-15T03:25:23;41.50;;;21.00;;
61435;SDS011;47304;47.456;19.160;2023-02-15T03:27:54;39.20;;;18.80;;
61435;SDS011;47304;47.456;19.160;2023-02-15T03:30:24;43.50;;;20.60;;
61435;SDS011;47304;47.456;19.160;2023-02-15T03:32:52;39.80;;;21.30;;
61435;SDS011;47304;47.456;19.160;2023-02-15T03:35:21;40.40;;;20.40;;
61435;SDS011;47304;47.456;19.160;2023-02-15T03:37:53;39.50;;;20.10;;
61435;SDS011;47304;47.456;19.160;2023-02-15T03:40:58;36.10;;;19.70;;
61435;SDS011;47304;47.456;19.160;2023-02-15T03:46:09;36.10;;;19.80;;
61435;SDS011;47304;47.456;19.160;2023-02-15T03:49:01;35.20;;;18.10;;
61435;SDS011;47304;47.456;19.160;2023-02-15T03:51:34;39.50;;;18.90;;
61435;SDS011;47304;47.456;19.160;2023-02-15T03:56:39;37.20;;;19.70;;
61435;SDS011;47304;47.456;19.160;2023-02-15T03:59:07;41.40;;;20.90;;
61435;SDS011;47304;47.456;19.160;2023-02-15T04:01:36;39.60;;;20.20;;
61435;SDS011;47304;47.456;19.160;2023-02-15T04:04:15;40.30;;;22.00;;
61435;SDS011;47304;47.456;19.160;2023-02-15T04:06:45;39.40;;;20.20;;
61435;SDS011;47304;47.456;19.160;2023-02-15T04:09:12;41.30;;;20.60;;
61435;SDS011;47304;47.456;19.160;2023-02-15T04:11:39;41.60;;;21.10;;
61435;SDS011;47304;47.456;19.160;2023-02-15T04:14:05;43.20;;;20.70;;
61435;SDS011;47304;47.456;19.160;2023-02-15T04:16:32;40.10;;;20.50;;
61435;SDS011;47304;47.456;19.160;2023-02-15T04:18:58;39.10;;;20.50;;
61435;SDS011;47304;47.456;19.160;2023-02-15T04:21:25;36.90;;;21.20;;
61435;SDS011;47304;47.456;19.160;2023-02-15T04:23:53;42.50;;;21.40;;
61435;SDS011;47304;47.456;19.160;2023-02-15T04:26:20;42.40;;;21.80;;
61435;SDS011;47304;47.456;19.160;2023-02-15T04:28:46;37.20;;;18.80;;
61435;SDS011;47304;47.456;19.160;2023-02-15T04:31:13;44.10;;;22.60;;
61435;SDS011;47304;47.456;19.160;2023-02-15T04:33:39;38.10;;;20.80;;
61435;SDS011;47304;47.456;19.160;2023-02-15T04:36:06;39.00;;;20.60;;
61435;SDS011;47304;47.456;19.160;2023-02-15T04:38:32;39.60;;;20.70;;
61435;SDS011;47304;47.456;19.160;2023-02-15T04:40:59;42.70;;;21.20;;
61435;SDS011;47304;47.456;19.160;2023-02-15T04:43:25;44.20;;;22.70;;
61435;SDS011;47304;47.456;19.160;2023-02-15T04:45:52;37.80;;;20.00;;
61435;SDS011;47304;47.456;19.160;2023-02-15T04:48:18;37.50;;;19.10;;
61435;SDS011;47304;47.456;19.160;2023-02-15T04:50:45;39.90;;;22.40;;
61435;SDS011;47304;47.456;19.160;2023-02-15T04:53:11;41.70;;;21.30;;
61435;SDS011;47304;47.456;19.160;2023-02-15T04:55:38;42.40;;;21.70;;
61435;SDS011;47304;47.456;19.160;2023-02-15T04:58:04;37.20;;;20.10;;
61435;SDS011;47304;47.456;19.160;2023-02-15T05:00:31;40.60;;;21.40;;
61435;SDS011;47304;47.456;19.160;2023-02-15T05:02:58;40.00;;;19.80;;
61435;SDS011;47304;47.456;19.160;2023-02-15T05:05:24;40.60;;;20.50;;
61435;SDS011;47304;47.456;19.160;2023-02-15T05:07:51;36.40;;;19.70;;
61435;SDS011;47304;47.456;19.160;2023-02-15T05:10:17;40.50;;;20.60;;
61435;SDS011;47304;47.456;19.160;2023-02-15T05:12:44;47.50;;;21.90;;
61435;SDS011;47304;47.456;19.160;2023-02-15T05:15:10;40.60;;;21.30;;
61435;SDS011;47304;47.456;19.160;2023-02-15T05:17:37;38.90;;;20.30;;
61435;SDS011;47304;47.456;19.160;2023-02-15T05:20:04;36.00;;;19.30;;
61435;SDS011;47304;47.456;19.160;2023-02-15T05:22:31;36.80;;;19.70;;
61435;SDS011;47304;47.456;19.160;2023-02-15T05:24:58;41.70;;;21.50;;
61435;SDS011;47304;47.456;19.160;2023-02-15T05:27:24;42.20;;;20.90;;
61435;SDS011;47304;47.456;19.160;2023-02-15T05:29:51;43.00;;;22.30;;
61435;SDS011;47304;47.456;19.160;2023-02-15T05:32:18;37.00;;;20.40;;
61435;SDS011;47304;47.456;19.160;2023-02-15T05:34:44;40.40;;;20.80;;
61435;SDS011;47304;47.456;19.160;2023-02-15T05:37:11;43.40;;;21.40;;
61435;SDS011;47304;47.456;19.160;2023-02-15T05:39:37;44.80;;;21.80;;
61435;SDS011;47304;47.456;19.160;2023-02-15T05:42:04;38.90;;;19.60;;
61435;SDS011;47304;47.456;19.160;2023-02-15T05:44:31;35.50;;;20.20;;
61435;SDS011;47304;47.456;19.160;2023-02-15T05:46:57;38.30;;;19.40;;
61435;SDS011;47304;47.456;19.160;2023-02-15T05:49:24;40.80;;;20.90;;
61435;SDS011;47304;47.456;19.160;2023-02-15T05:51:50;38.20;;;20.50;;
61435;SDS011;47304;47.456;19.160;2023-02-15T05:54:17;37.90;;;20.60;;
61435;SDS011;47304;47.456;19.160;2023-02-15T05:56:43;43.30;;;22.20;;
61435;SDS011;47304;47.456;19.160;2023-02-15T05:59:10;41.60;;;21.60;;
61435;SDS011;47304;47.456;19.160;2023-02-15T06:01:36;39.80;;;20.90;;
61435;SDS011;47304;47.456;19.160;2023-02-15T06:04:03;41.90;;;21.60;;
61435;SDS011;47304;47.456;19.160;2023-02-15T06:06:29;40.20;;;19.80;;
61435;SDS011;47304;47.456;19.160;2023-02-15T06:08:56;38.80;;;20.50;;
61435;SDS011;47304;47.456;19.160;2023-02-15T06:11:22;36.40;;;20.00;;
61435;SDS011;47304;47.456;19.160;2023-02-15T06:13:49;39.00;;;21.20;;
61435;SDS011;47304;47.456;19.160;2023-02-15T06:16:15;39.90;;;20.80;;
61435;SDS011;47304;47.456;19.160;2023-02-15T06:18:42;44.80;;;22.60;;
61435;SDS011;47304;47.456;19.160;2023-02-15T06:21:09;45.00;;;22.20;;
61435;SDS011;47304;47.456;19.160;2023-02-15T06:23:35;39.20;;;20.80;;
61435;SDS011;47304;47.456;19.160;2023-02-15T06:26:02;41.20;;;21.30;;
61435;SDS011;47304;47.456;19.160;2023-02-15T06:28:29;42.00;;;20.70;;
61435;SDS011;47304;47.456;19.160;2023-02-15T06:30:55;49.90;;;22.50;;
61435;SDS011;47304;47.456;19.160;2023-02-15T06:33:22;45.60;;;23.50;;
61435;SDS011;47304;47.456;19.160;2023-02-15T06:35:49;45.30;;;23.50;;
61435;SDS011;47304;47.456;19.160;2023-02-15T06:38:16;40.00;;;21.20;;
61435;SDS011;47304;47.456;19.160;2023-02-15T06:40:42;40.10;;;20.00;;
61435;SDS011;47304;47.456;19.160;2023-02-15T06:43:09;37.30;;;19.20;;
61435;SDS011;47304;47.456;19.160;2023-02-15T06:45:35;35.90;;;19.60;;
61435;SDS011;47304;47.456;19.160;2023-02-15T06:48:02;36.70;;;20.20;;
61435;SDS011;47304;47.456;19.160;2023-02-15T06:50:28;36.80;;;18.70;;
61435;SDS011;47304;47.456;19.160;2023-02-15T06:52:56;33.90;;;18.40;;
61435;SDS011;47304;47.456;19.160;2023-02-15T06:55:23;39.40;;;21.20;;
61435;SDS011;47304;47.456;19.160;2023-02-15T06:57:50;42.80;;;22.20;;
61435;SDS011;47304;47.456;19.160;2023-02-15T07:00:17;48.20;;;22.50;;
61435;SDS011;47304;47.456;19.160;2023-02-15T07:02:44;50.90;;;24.10;;
61435;SDS011;47304;47.456;19.160;2023-02-15T07:05:11;50.00;;;23.60;;
61435;SDS011;47304;47.456;19.160;2023-02-15T07:07:37;51.50;;;23.70;;
61435;SDS011;47304;47.456;19.160;2023-02-15T07:10:04;55.30;;;26.40;;
61435;SDS011;47304;47.456;19.160;2023-02-15T07:12:31;53.30;;;25.40;;
61435;SDS011;47304;47.456;19.160;2023-02-15T07:14:58;46.00;;;22.80;;
61435;SDS011;47304;47.456;19.160;2023-02-15T07:17:24;40.90;;;18.10;;
61435;SDS011;47304;47.456;19.160;2023-02-15T07:20:02;29.90;;;15.70;;
61435;SDS011;47304;47.456;19.160;2023-02-15T07:22:30;39.30;;;20.70;;
61435;SDS011;47304;47.456;19.160;2023-02-15T07:24:56;47.10;;;23.90;;
61435;SDS011;47304;47.456;19.160;2023-02-15T07:27:23;41.20;;;20.20;;
61435;SDS011;47304;47.456;19.160;2023-02-15T07:29:49;33.40;;;17.30;;
61435;SDS011;47304;47.456;19.160;2023-02-15T07:32:16;33.80;;;19.60;;
61435;SDS011;47304;47.456;19.160;2023-02-15T07:34:42;32.00;;;17.90;;
61435;SDS011;47304;47.456;19.160;2023-02-15T07:37:09;35.40;;;19.80;;
61435;SDS011;47304;47.456;19.160;2023-02-15T07:39:35;29.00;;;16.50;;
61435;SDS011;47304;47.456;19.160;2023-02-15T07:42:02;36.40;;;20.00;;
61435;SDS011;47304;47.456;19.160;2023-02-15T07:44:29;32.70;;;18.20;;
61435;SDS011;47304;47.456;19.160;2023-02-15T07:46:55;37.10;;;19.60;;
61435;SDS011;47304;47.456;19.160;2023-02-15T07:49:22;35.70;;;18.70;;
61435;SDS011;47304;47.456;19.160;2023-02-15T07:51:48;38.80;;;19.50;;
61435;SDS011;47304;47.456;19.160;2023-02-15T07:54:15;35.00;;;18.00;;
61435;SDS011;47304;47.456;19.160;2023-02-15T07:56:41;38.00;;;19.30;;
61435;SDS011;47304;47.456;19.160;2023-02-15T07:59:08;34.20;;;19.10;;
61435;SDS011;47304;47.456;19.160;2023-02-15T08:01:36;39.00;;;18.90;;
61435;SDS011;47304;47.456;19.160;2023-02-15T08:04:05;30.50;;;18.80;;
61435;SDS011;47304;47.456;19.160;2023-02-15T08:06:34;38.20;;;20.50;;
61435;SDS011;47304;47.456;19.160;2023-02-15T08:09:05;36.20;;;20.40;;
61435;SDS011;47304;47.456;19.160;2023-02-15T08:11:34;34.70;;;18.80;;
61435;SDS011;47304;47.456;19.160;2023-02-15T08:14:06;31.90;;;18.10;;
61435;SDS011;47304;47.456;19.160;2023-02-15T08:16:38;35.90;;;19.80;;
61435;SDS011;47304;47.456;19.160;2023-02-15T08:21:50;36.30;;;21.10;;
61435;SDS011;47304;47.456;19.160;2023-02-15T08:24:22;33.00;;;18.50;;
61435;SDS011;47304;47.456;19.160;2023-02-15T08:26:51;36.60;;;19.10;;
61435;SDS011;47304;47.456;19.160;2023-02-15T08:29:19;40.40;;;19.30;;
61435;SDS011;47304;47.456;19.160;2023-02-15T08:31:47;34.10;;;17.90;;
61435;SDS011;47304;47.456;19.160;2023-02-15T08:34:16;37.70;;;18.60;;
61435;SDS011;47304;47.456;19.160;2023-02-15T08:36:43;36.20;;;19.70;;
61435;SDS011;47304;47.456;19.160;2023-02-15T08:39:11;35.30;;;18.40;;
61435;SDS011;47304;47.456;19.160;2023-02-15T08:41:39;32.50;;;17.80;;
61435;SDS011;47304;47.456;19.160;2023-02-15T08:44:09;35.10;;;19.90;;
61435;SDS011;47304;47.456;19.160;2023-02-15T08:46:36;35.80;;;19.80;;
61435;SDS011;47304;47.456;19.160;2023-02-15T08:49:06;38.10;;;20.60;;
61435;SDS011;47304;47.456;19.160;2023-02-15T08:51:34;34.50;;;19.70;;
61435;SDS011;47304;47.456;19.160;2023-02-15T08:54:04;31.10;;;17.50;;
61435;SDS011;47304;47.456;19.160;2023-02-15T08:56:33;30.60;;;17.20;;
61435;SDS011;47304;47.456;19.160;2023-02-15T08:59:02;27.90;;;18.00;;
61435;SDS011;47304;47.456;19.160;2023-02-15T09:01:31;28.20;;;17.90;;
61435;SDS011;47304;47.456;19.160;2023-02-15T09:04:00;27.70;;;18.50;;
61435;SDS011;47304;47.456;19.160;2023-02-15T09:06:29;30.50;;;18.90;;
61435;SDS011;47304;47.456;19.160;2023-02-15T09:08:56;29.10;;;18.00;;
61435;SDS011;47304;47.456;19.160;2023-02-15T09:11:23;28.50;;;17.70;;
61435;SDS011;47304;47.456;19.160;2023-02-15T09:13:52;27.30;;;17.20;;
61435;SDS011;47304;47.456;19.160;2023-02-15T09:16:21;24.10;;;14.70;;
61435;SDS011;47304;47.456;19.160;2023-02-15T09:18:50;24.10;;;16.20;;
61435;SDS011;47304;47.456;19.160;2023-02-15T09:21:21;26.40;;;16.80;;
61435;SDS011;47304;47.456;19.160;2023-02-15T09:23:50;25.90;;;18.10;;
61435;SDS011;47304;47.456;19.160;2023-02-15T09:26:19;24.30;;;17.40;;
61435;SDS011;47304;47.456;19.160;2023-02-15T09:28:47;23.70;;;17.20;;
61435;SDS011;47304;47.456;19.160;2023-02-15T09:31:19;22.60;;;17.30;;
61435;SDS011;47304;47.456;19.160;2023-02-15T09:33:48;21.70;;;17.30;;
61435;SDS011;47304;47.456;19.160;2023-02-15T09:36:18;21.10;;;17.70;;
61435;SDS011;47304;47.456;19.160;2023-02-15T09:38:50;23.30;;;17.70;;
61435;SDS011;47304;47.456;19.160;2023-02-15T09:44:33;23.10;;;19.20;;
61435;SDS011;47304;47.456;19.160;2023-02-15T09:47:08;21.30;;;18.40;;
61435;SDS011;47304;47.456;19.160;2023-02-15T09:50:06;18.70;;;15.80;;
61435;SDS011;47304;47.456;19.160;2023-02-15T10:12:11;19.30;;;17.00;;
61435;SDS011;47304;47.456;19.160;2023-02-15T10:14:47;18.00;;;14.50;;
61435;SDS011;47304;47.456;19.160;2023-02-15T10:20:17;17.60;;;15.40;;
61435;SDS011;47304;47.456;19.160;2023-02-15T10:25:51;17.40;;;14.50;;
61435;SDS011;47304;47.456;19.160;2023-02-15T10:33:47;17.30;;;15.60;;
61435;SDS011;47304;47.456;19.160;2023-02-15T10:39:24;17.30;;;15.60;;
61435;SDS011;47304;47.456;19.160;2023-02-15T10:44:40;18.50;;;16.70;;
61435;SDS011;47304;47.456;19.160;2023-02-15T11:06:13;21.30;;;19.20;;
61435;SDS011;47304;47.456;19.160;2023-02-15T11:08:43;20.60;;;18.50;;
61435;SDS011;47304;47.456;19.160;2023-02-15T11:11:19;19.90;;;17.90;;
61435;SDS011;47304;47.456;19.160;2023-02-15T11:13:52;21.20;;;19.20;;
61435;SDS011;47304;47.456;19.160;2023-02-15T11:16:25;21.40;;;19.40;;
61435;SDS011;47304;47.456;19.160;2023-02-15T11:19:01;20.30;;;18.20;;
61435;SDS011;47304;47.456;19.160;2023-02-15T11:21:55;18.00;;;16.10;;
61435;SDS011;47304;47.456;19.160;2023-02-15T11:24:27;19.00;;;17.10;;
61435;SDS011;47304;47.456;19.160;2023-02-15T11:26:57;20.60;;;18.40;;
61435;SDS011;47304;47.456;19.160;2023-02-15T11:29:44;20.30;;;18.30;;
61435;SDS011;47304;47.456;19.160;2023-02-15T11:32:14;21.00;;;18.80;;
61435;SDS011;47304;47.456;19.160;2023-02-15T11:35:28;22.40;;;20.00;;
61435;SDS011;47304;47.456;19.160;2023-02-15T11:37:43;21.20;;;18.80;;
61435;SDS011;47304;47.456;19.160;2023-02-15T11:40:20;23.00;;;20.40;;
61435;SDS011;47304;47.456;19.160;2023-02-15T11:42:48;25.50;;;20.80;;
61435;SDS011;47304;47.456;19.160;2023-02-15T11:45:19;22.00;;;18.70;;
61435;SDS011;47304;47.456;19.160;2023-02-15T11:47:47;24.60;;;19.80;;
61435;SDS011;47304;47.456;19.160;2023-02-15T11:50:15;21.30;;;19.00;;
61435;SDS011;47304;47.456;19.160;2023-02-15T11:52:44;22.60;;;19.10;;
61435;SDS011;47304;47.456;19.160;2023-02-15T11:55:14;22.00;;;19.40;;
61435;SDS011;47304;47.456;19.160;2023-02-15T11:57:47;23.70;;;20.40;;
61435;SDS011;47304;47.456;19.160;2023-02-15T12:00:24;24.60;;;21.00;;
61435;SDS011;47304;47.456;19.160;2023-02-15T12:02:57;24.10;;;20.20;;
61435;SDS011;47304;47.456;19.160;2023-02-15T12:05:24;23.10;;;19.70;;
61435;SDS011;47304;47.456;19.160;2023-02-15T12:07:53;27.60;;;21.10;;
61435;SDS011;47304;47.456;19.160;2023-02-15T12:10:50;24.00;;;20.60;;
61435;SDS011;47304;47.456;19.160;2023-02-15T12:13:19;27.30;;;22.50;;
61435;SDS011;47304;47.456;19.160;2023-02-15T12:15:47;29.70;;;24.30;;
61435;SDS011;47304;47.456;19.160;2023-02-15T12:18:18;27.50;;;22.50;;
61435;SDS011;47304;47.456;19.160;2023-02-15T12:20:58;26.90;;;21.80;;
61435;SDS011;47304;47.456;19.160;2023-02-15T12:23:28;26.30;;;21.00;;
61435;SDS011;47304;47.456;19.160;2023-02-15T12:25:55;24.80;;;19.10;;
61435;SDS011;47304;47.456;19.160;2023-02-15T12:28:24;24.80;;;19.40;;
61435;SDS011;47304;47.456;19.160;2023-02-15T12:30:56;24.70;;;19.00;;
61435;SDS011;47304;47.456;19.160;2023-02-15T12:36:13;27.40;;;18.90;;
61435;SDS011;47304;47.456;19.160;2023-02-15T12:41:30;26.80;;;18.00;;
61435;SDS011;47304;47.456;19.160;2023-02-15T12:44:07;25.50;;;19.50;;
61435;SDS011;47304;47.456;19.160;2023-02-15T12:46:41;30.20;;;19.00;;
61435;SDS011;47304;47.456;19.160;2023-02-15T12:51:50;28.60;;;19.70;;
61435;SDS011;47304;47.456;19.160;2023-02-15T12:56:56;31.00;;;21.40;;
61435;SDS011;47304;47.456;19.160;2023-02-15T12:59:23;29.40;;;20.90;;
61435;SDS011;47304;47.456;19.160;2023-02-15T13:01:51;34.10;;;22.10;;
61435;SDS011;47304;47.456;19.160;2023-02-15T13:04:25;34.70;;;23.80;;
61435;SDS011;47304;47.456;19.160;2023-02-15T13:06:54;28.20;;;18.00;;
61435;SDS011;47304;47.456;19.160;2023-02-15T13:14:52;37.70;;;24.50;;
61435;SDS011;47304;47.456;19.160;2023-02-15T13:17:25;43.10;;;28.00;;
61435;SDS011;47304;47.456;19.160;2023-02-15T13:19:54;36.40;;;22.20;;
61435;SDS011;47304;47.456;19.160;2023-02-15T13:25:26;32.70;;;20.20;;
61435;SDS011;47304;47.456;19.160;2023-02-15T13:27:57;33.20;;;21.30;;
61435;SDS011;47304;47.456;19.160;2023-02-15T13:30:35;32.80;;;20.00;;
61435;SDS011;47304;47.456;19.160;2023-02-15T13:33:05;31.80;;;20.80;;
61435;SDS011;47304;47.456;19.160;2023-02-15T13:36:22;38.30;;;23.40;;
61435;SDS011;47304;47.456;19.160;2023-02-15T13:41:20;36.20;;;22.90;;
61435;SDS011;47304;47.456;19.160;2023-02-15T13:43:56;36.70;;;23.20;;
61435;SDS011;47304;47.456;19.160;2023-02-15T13:52:15;34.40;;;21.40;;
61435;SDS011;47304;47.456;19.160;2023-02-15T14:02:43;28.90;;;19.20;;
61435;SDS011;47304;47.456;19.160;2023-02-15T14:05:35;31.80;;;21.50;;
61435;SDS011;47304;47.456;19.160;2023-02-15T14:19:16;34.00;;;20.60;;
61435;SDS011;47304;47.456;19.160;2023-02-15T14:21:58;32.60;;;19.60;;
61435;SDS011;47304;47.456;19.160;2023-02-15T14:27:20;34.90;;;20.80;;
61435;SDS011;47304;47.456;19.160;2023-02-15T14:35:14;31.70;;;18.50;;
61435;SDS011;47304;47.456;19.160;2023-02-15T14:40:32;32.30;;;18.90;;
61435;SDS011;47304;47.456;19.160;2023-02-15T14:46:01;35.50;;;19.00;;
61435;SDS011;47304;47.456;19.160;2023-02-15T14:51:05;34.30;;;19.20;;
61435;SDS011;47304;47.456;19.160;2023-02-15T14:58:37;30.40;;;17.60;;
61435;SDS011;47304;47.456;19.160;2023-02-15T15:01:07;30.20;;;18.00;;
61435;SDS011;47304;47.456;19.160;2023-02-15T15:03:36;31.80;;;17.30;;
61435;SDS011;47304;47.456;19.160;2023-02-15T15:06:29;33.80;;;17.70;;
61435;SDS011;47304;47.456;19.160;2023-02-15T15:09:11;29.50;;;16.30;;
61435;SDS011;47304;47.456;19.160;2023-02-15T15:11:42;29.80;;;16.10;;
61435;SDS011;47304;47.456;19.160;2023-02-15T15:14:36;27.90;;;16.00;;
61435;SDS011;47304;47.456;19.160;2023-02-15T15:17:00;31.10;;;17.10;;
61435;SDS011;47304;47.456;19.160;2023-02-15T15:22:18;30.50;;;17.00;;
61435;SDS011;47304;47.456;19.160;2023-02-15T15:44:01;37.00;;;18.70;;
61435;SDS011;47304;47.456;19.160;2023-02-15T15:47:08;34.80;;;19.40;;
61435;SDS011;47304;47.456;19.160;2023-02-15T15:49:37;38.00;;;21.40;;
61435;SDS011;47304;47.456;19.160;2023-02-15T15:52:15;36.10;;;20.10;;
61435;SDS011;47304;47.456;19.160;2023-02-15T15:54:44;33.10;;;18.80;;
61435;SDS011;47304;47.456;19.160;2023-02-15T15:57:18;35.30;;;19.10;;
61435;SDS011;47304;47.456;19.160;2023-02-15T15:59:52;34.60;;;18.30;;
61435;SDS011;47304;47.456;19.160;2023-02-15T16:02:20;34.60;;;20.40;;
61435;SDS011;47304;47.456;19.160;2023-02-15T16:04:47;37.10;;;20.60;;
61435;SDS011;47304;47.456;19.160;2023-02-15T16:09:59;31.90;;;18.40;;
61435;SDS011;47304;47.456;19.160;2023-02-15T16:12:29;32.80;;;17.00;;
61435;SDS011;47304;47.456;19.160;2023-02-15T16:15:00;31.80;;;16.20;;
61435;SDS011;47304;47.456;19.160;2023-02-15T16:20:02;27.20;;;14.00;;
61435;SDS011;47304;47.456;19.160;2023-02-15T16:22:33;27.80;;;14.50;;
61435;SDS011;47304;47.456;19.160;2023-02-15T16:27:41;30.70;;;16.50;;
61435;SDS011;47304;47.456;19.160;2023-02-15T16:30:43;31.10;;;16.20;;
61435;SDS011;47304;47.456;19.160;2023-02-15T16:33:10;37.90;;;21.00;;
61435;SDS011;47304;47.456;19.160;2023-02-15T16:38:30;34.90;;;18.00;;
61435;SDS011;47304;47.456;19.160;2023-02-15T16:41:00;35.50;;;19.60;;
61435;SDS011;47304;47.456;19.160;2023-02-15T16:43:28;36.50;;;20.30;;
61435;SDS011;47304;47.456;19.160;2023-02-15T16:46:05;38.30;;;20.10;;
61435;SDS011;47304;47.456;19.160;2023-02-15T16:48:39;34.80;;;19.50;;
61435;SDS011;47304;47.456;19.160;2023-02-15T16:51:09;37.20;;;19.90;;
61435;SDS011;47304;47.456;19.160;2023-02-15T16:53:36;36.00;;;19.50;;
61435;SDS011;47304;47.456;19.160;2023-02-15T16:56:04;33.30;;;18.50;;
61435;SDS011;47304;47.456;19.160;2023-02-15T16:58:53;32.40;;;18.20;;
61435;SDS011;47304;47.456;19.160;2023-02-15T17:01:20;32.10;;;17.00;;
61435;SDS011;47304;47.456;19.160;2023-02-15T17:03:50;37.40;;;18.80;;
61435;SDS011;47304;47.456;19.160;2023-02-15T17:06:36;32.20;;;17.80;;
61435;SDS011;47304;47.456;19.160;2023-02-15T17:09:03;33.90;;;18.50;;
61435;SDS011;47304;47.456;19.160;2023-02-15T17:11:36;37.60;;;17.80;;
61435;SDS011;47304;47.456;19.160;2023-02-15T17:16:43;34.20;;;17.90;;
61435;SDS011;47304;47.456;19.160;2023-02-15T17:21:50;37.30;;;17.80;;
61435;SDS011;47304;47.456;19.160;2023-02-15T17:26:55;35.90;;;18.50;;
61435;SDS011;47304;47.456;19.160;2023-02-15T17:29:35;33.20;;;16.90;;
61435;SDS011;47304;47.456;19.160;2023-02-15T17:32:12;35.80;;;16.20;;
61435;SDS011;47304;47.456;19.160;2023-02-15T17:37:30;30.70;;;15.70;;
61435;SDS011;47304;47.456;19.160;2023-02-15T17:40:19;31.10;;;16.80;;
61435;SDS011;47304;47.456;19.160;2023-02-15T17:42:48;31.70;;;17.20;;
61435;SDS011;47304;47.456;19.160;2023-02-15T17:45:14;30.30;;;15.70;;
61435;SDS011;47304;47.456;19.160;2023-02-15T17:47:42;33.10;;;18.50;;
61435;SDS011;47304;47.456;19.160;2023-02-15T17:50:16;35.60;;;19.20;;
61435;SDS011;47304;47.456;19.160;2023-02-15T17:52:45;32.80;;;17.80;;
61435;SDS011;47304;47.456;19.160;2023-02-15T17:55:15;41.10;;;20.00;;
61435;SDS011;47304;47.456;19.160;2023-02-15T17:57:45;38.80;;;19.30;;
61435;SDS011;47304;47.456;19.160;2023-02-15T18:00:13;37.80;;;18.50;;
61435;SDS011;47304;47.456;19.160;2023-02-15T18:02:40;35.60;;;18.10;;
61435;SDS011;47304;47.456;19.160;2023-02-15T18:05:17;35.20;;;19.00;;